Details for United Airlines at KIAH




Go Back


Latest METAR
Local Time

KIAH 180353Z 06004KT 10SM BKN024 OVC070 16/12 A3015 RMK AO2 SLP210 T01560122

17/02/2018, 22:30:29

Description
Results
United Airlines Logo
Number of Pilots based at KIAH
0 Pilots Based here
Number of United Airlines Flights Departed from KIAH
1 Flights Departed
Number of United Airlines Flights Arrived at KIAH
1 Flights Arrived
Number of United Airlines Schedules Departing from KIAH
1102 Schedules
Number of United Airlines Schedules Arriving at KIAH
1131 Schedules
Number of United Airlines Schedules Departing from KIAH availible today
486 Schedules Today
Number of United Airlines Schedules Arriving at KIAH availible today
478 Schedules Today
Average Landing Rate at KIAH
-273 fpm
United Airlines Average Landing Rate at KIAH
-258 fpm
Total Fuel Purchased at KIAH by United Airlines
19,872.79 kgs / 43,811.55 lbs

Pilots Based at KIAH


Pilot ID
Pilot Name
Pilot Rank
No. of Flights
No. of Flying Hours
There are no pilots assigned to this hub!   Will you be the first?
Content